sensor_id;sensor_type;location;lat;lon;timestamp;P1;durP1;ratioP1;P2;durP2;ratioP2
48777;SDS011;34578;0.000;0.000;2023-03-26T00:03:01;1.80;;;0.80;;
48777;SDS011;34578;0.000;0.000;2023-03-26T00:08:02;2.20;;;1.00;;
48777;SDS011;34578;0.000;0.000;2023-03-26T00:13:03;2.28;;;0.75;;
48777;SDS011;34578;0.000;0.000;2023-03-26T00:18:04;1.80;;;0.82;;
48777;SDS011;34578;0.000;0.000;2023-03-26T00:23:05;2.83;;;0.90;;
48777;SDS011;34578;0.000;0.000;2023-03-26T00:28:07;2.78;;;1.13;;
48777;SDS011;34578;0.000;0.000;2023-03-26T00:33:07;3.67;;;0.90;;
48777;SDS011;34578;0.000;0.000;2023-03-26T00:38:10;1.55;;;0.70;;
48777;SDS011;34578;0.000;0.000;2023-03-26T00:43:14;3.30;;;0.90;;
48777;SDS011;34578;0.000;0.000;2023-03-26T00:48:18;3.08;;;0.70;;
48777;SDS011;34578;0.000;0.000;2023-03-26T00:53:20;1.08;;;0.50;;
48777;SDS011;34578;0.000;0.000;2023-03-26T00:58:21;3.25;;;0.68;;
48777;SDS011;34578;0.000;0.000;2023-03-26T01:03:22;2.25;;;0.93;;
48777;SDS011;34578;0.000;0.000;2023-03-26T01:08:31;3.28;;;0.80;;
48777;SDS011;34578;0.000;0.000;2023-03-26T01:13:35;2.33;;;0.47;;
48777;SDS011;34578;0.000;0.000;2023-03-26T01:18:37;2.22;;;0.68;;
48777;SDS011;34578;0.000;0.000;2023-03-26T01:28:52;4.97;;;0.80;;
48777;SDS011;34578;0.000;0.000;2023-03-26T01:33:56;2.47;;;0.85;;
48777;SDS011;34578;0.000;0.000;2023-03-26T01:39:23;1.85;;;0.80;;
48777;SDS011;34578;0.000;0.000;2023-03-26T01:44:43;3.40;;;1.05;;
48777;SDS011;34578;0.000;0.000;2023-03-26T01:49:49;1.75;;;0.60;;
48777;SDS011;34578;0.000;0.000;2023-03-26T01:54:49;3.17;;;1.43;;
48777;SDS011;34578;0.000;0.000;2023-03-26T02:00:01;1.33;;;0.60;;
48777;SDS011;34578;0.000;0.000;2023-03-26T02:05:19;4.43;;;0.63;;
48777;SDS011;34578;0.000;0.000;2023-03-26T02:10:29;2.95;;;1.05;;
48777;SDS011;34578;0.000;0.000;2023-03-26T02:15:32;3.38;;;0.60;;
48777;SDS011;34578;0.000;0.000;2023-03-26T02:20:33;2.42;;;1.15;;
48777;SDS011;34578;0.000;0.000;2023-03-26T02:25:33;2.73;;;0.60;;
48777;SDS011;34578;0.000;0.000;2023-03-26T02:30:35;3.17;;;1.10;;
48777;SDS011;34578;0.000;0.000;2023-03-26T02:35:36;3.90;;;1.13;;
48777;SDS011;34578;0.000;0.000;2023-03-26T02:40:37;1.48;;;0.80;;
48777;SDS011;34578;0.000;0.000;2023-03-26T02:45:37;3.78;;;1.10;;
48777;SDS011;34578;0.000;0.000;2023-03-26T02:50:38;2.93;;;0.73;;
48777;SDS011;34578;0.000;0.000;2023-03-26T02:56:05;3.45;;;0.50;;
48777;SDS011;34578;0.000;0.000;2023-03-26T03:01:16;1.52;;;0.68;;
48777;SDS011;34578;0.000;0.000;2023-03-26T03:06:25;4.30;;;0.80;;
48777;SDS011;34578;0.000;0.000;2023-03-26T03:11:29;2.30;;;1.15;;
48777;SDS011;34578;0.000;0.000;2023-03-26T03:16:30;3.83;;;0.82;;
48777;SDS011;34578;0.000;0.000;2023-03-26T03:21:34;1.42;;;0.77;;
48777;SDS011;34578;0.000;0.000;2023-03-26T03:26:34;3.80;;;0.60;;
48777;SDS011;34578;0.000;0.000;2023-03-26T03:31:46;3.92;;;0.70;;
48777;SDS011;34578;0.000;0.000;2023-03-26T03:37:02;3.22;;;1.45;;
48777;SDS011;34578;0.000;0.000;2023-03-26T03:42:09;2.53;;;1.02;;
48777;SDS011;34578;0.000;0.000;2023-03-26T03:47:11;6.88;;;1.60;;
48777;SDS011;34578;0.000;0.000;2023-03-26T03:52:13;3.88;;;1.30;;
48777;SDS011;34578;0.000;0.000;2023-03-26T03:57:16;2.30;;;0.57;;
48777;SDS011;34578;0.000;0.000;2023-03-26T04:02:28;2.92;;;0.80;;
48777;SDS011;34578;0.000;0.000;2023-03-26T04:12:38;1.70;;;0.55;;
48777;SDS011;34578;0.000;0.000;2023-03-26T04:17:39;2.10;;;0.60;;
48777;SDS011;34578;0.000;0.000;2023-03-26T04:22:42;3.15;;;0.70;;
48777;SDS011;34578;0.000;0.000;2023-03-26T04:27:44;0.80;;;0.40;;
48777;SDS011;34578;0.000;0.000;2023-03-26T04:33:02;1.63;;;0.70;;
48777;SDS011;34578;0.000;0.000;2023-03-26T04:38:08;1.85;;;0.60;;
48777;SDS011;34578;0.000;0.000;2023-03-26T04:43:13;3.00;;;1.17;;
48777;SDS011;34578;0.000;0.000;2023-03-26T04:48:35;3.00;;;1.15;;
48777;SDS011;34578;0.000;0.000;2023-03-26T04:53:40;7.63;;;1.85;;
48777;SDS011;34578;0.000;0.000;2023-03-26T04:59:01;2.10;;;0.68;;
48777;SDS011;34578;0.000;0.000;2023-03-26T05:04:05;2.10;;;0.80;;
48777;SDS011;34578;0.000;0.000;2023-03-26T05:09:05;1.33;;;0.53;;
48777;SDS011;34578;0.000;0.000;2023-03-26T05:14:27;0.73;;;0.45;;
48777;SDS011;34578;0.000;0.000;2023-03-26T05:19:29;2.17;;;0.60;;
48777;SDS011;34578;0.000;0.000;2023-03-26T05:24:30;1.85;;;0.82;;
48777;SDS011;34578;0.000;0.000;2023-03-26T05:29:30;1.35;;;0.70;;
48777;SDS011;34578;0.000;0.000;2023-03-26T05:34:31;2.08;;;0.75;;
48777;SDS011;34578;0.000;0.000;2023-03-26T05:39:32;1.30;;;0.80;;
48777;SDS011;34578;0.000;0.000;2023-03-26T05:44:51;1.17;;;0.65;;
48777;SDS011;34578;0.000;0.000;2023-03-26T05:54:59;0.93;;;0.63;;
48777;SDS011;34578;0.000;0.000;2023-03-26T06:00:17;3.13;;;1.17;;
48777;SDS011;34578;0.000;0.000;2023-03-26T06:05:18;1.17;;;0.47;;
48777;SDS011;34578;0.000;0.000;2023-03-26T06:10:36;1.35;;;0.50;;
48777;SDS011;34578;0.000;0.000;2023-03-26T06:15:37;1.30;;;0.60;;
48777;SDS011;34578;0.000;0.000;2023-03-26T06:20:47;1.88;;;0.65;;
48777;SDS011;34578;0.000;0.000;2023-03-26T06:25:57;2.08;;;0.60;;
48777;SDS011;34578;0.000;0.000;2023-03-26T06:31:16;2.25;;;0.77;;
48777;SDS011;34578;0.000;0.000;2023-03-26T06:36:27;1.38;;;0.45;;
48777;SDS011;34578;0.000;0.000;2023-03-26T06:41:28;1.35;;;0.70;;
48777;SDS011;34578;0.000;0.000;2023-03-26T06:46:41;1.58;;;0.50;;
48777;SDS011;34578;0.000;0.000;2023-03-26T06:52:02;2.33;;;0.77;;
48777;SDS011;34578;0.000;0.000;2023-03-26T06:57:35;5.82;;;0.77;;
48777;SDS011;34578;0.000;0.000;2023-03-26T07:03:08;1.60;;;0.85;;
48777;SDS011;34578;0.000;0.000;2023-03-26T07:08:29;0.93;;;0.68;;
48777;SDS011;34578;0.000;0.000;2023-03-26T07:13:49;1.27;;;0.70;;
48777;SDS011;34578;0.000;0.000;2023-03-26T07:19:17;1.95;;;0.70;;
48777;SDS011;34578;0.000;0.000;2023-03-26T07:24:18;1.42;;;0.98;;
48777;SDS011;34578;0.000;0.000;2023-03-26T07:29:43;0.60;;;0.40;;
48777;SDS011;34578;0.000;0.000;2023-03-26T07:40:48;0.98;;;0.60;;
48777;SDS011;34578;0.000;0.000;2023-03-26T07:46:20;2.13;;;0.90;;
48777;SDS011;34578;0.000;0.000;2023-03-26T07:51:45;2.28;;;0.52;;
48777;SDS011;34578;0.000;0.000;2023-03-26T07:57:06;2.13;;;1.30;;
48777;SDS011;34578;0.000;0.000;2023-03-26T08:08:52;6.55;;;1.00;;
48777;SDS011;34578;0.000;0.000;2023-03-26T08:14:16;5.90;;;1.10;;
48777;SDS011;34578;0.000;0.000;2023-03-26T08:19:30;0.77;;;0.40;;
48777;SDS011;34578;0.000;0.000;2023-03-26T08:29:59;3.70;;;0.80;;
48777;SDS011;34578;0.000;0.000;2023-03-26T08:35:02;1.33;;;0.60;;
48777;SDS011;34578;0.000;0.000;2023-03-26T08:40:03;3.05;;;0.65;;
48777;SDS011;34578;0.000;0.000;2023-03-26T08:45:24;5.32;;;0.68;;
48777;SDS011;34578;0.000;0.000;2023-03-26T09:40:10;6.72;;;1.50;;
48777;SDS011;34578;0.000;0.000;2023-03-26T09:50:27;8.25;;;1.10;;
48777;SDS011;34578;0.000;0.000;2023-03-26T10:59:42;4.72;;;1.45;;
48777;SDS011;34578;0.000;0.000;2023-03-26T11:09:57;15.80;;;3.42;;
48777;SDS011;34578;0.000;0.000;2023-03-26T11:20:34;18.70;;;4.93;;
48777;SDS011;34578;0.000;0.000;2023-03-26T11:26:06;34.38;;;6.93;;
48777;SDS011;34578;0.000;0.000;2023-03-26T11:36:35;13.02;;;3.55;;
48777;SDS011;34578;0.000;0.000;2023-03-26T11:41:38;14.93;;;4.07;;
48777;SDS011;34578;0.000;0.000;2023-03-26T11:46:56;25.08;;;5.63;;
48777;SDS011;34578;0.000;0.000;2023-03-26T11:52:00;21.90;;;6.28;;
48777;SDS011;34578;0.000;0.000;2023-03-26T11:57:03;21.08;;;6.38;;
48777;SDS011;34578;0.000;0.000;2023-03-26T12:12:17;23.08;;;5.38;;
48777;SDS011;34578;0.000;0.000;2023-03-26T12:17:26;14.40;;;5.38;;
48777;SDS011;34578;0.000;0.000;2023-03-26T12:22:32;21.48;;;7.10;;
48777;SDS011;34578;0.000;0.000;2023-03-26T12:27:36;25.00;;;7.65;;
48777;SDS011;34578;0.000;0.000;2023-03-26T12:32:41;13.93;;;5.45;;
48777;SDS011;34578;0.000;0.000;2023-03-26T12:37:44;18.60;;;4.95;;
48777;SDS011;34578;0.000;0.000;2023-03-26T12:42:50;15.20;;;4.80;;
48777;SDS011;34578;0.000;0.000;2023-03-26T12:47:56;11.27;;;4.53;;
48777;SDS011;34578;0.000;0.000;2023-03-26T12:53:21;10.90;;;4.18;;
48777;SDS011;34578;0.000;0.000;2023-03-26T13:15:22;13.68;;;3.17;;
48777;SDS011;34578;0.000;0.000;2023-03-26T13:20:33;10.98;;;3.25;;
48777;SDS011;34578;0.000;0.000;2023-03-26T13:31:17;15.20;;;4.40;;
48777;SDS011;34578;0.000;0.000;2023-03-26T13:36:47;10.02;;;3.40;;
48777;SDS011;34578;0.000;0.000;2023-03-26T13:47:33;11.13;;;3.55;;
48777;SDS011;34578;0.000;0.000;2023-03-26T13:52:50;13.60;;;3.78;;
48777;SDS011;34578;0.000;0.000;2023-03-26T13:58:05;10.18;;;3.70;;
48777;SDS011;34578;0.000;0.000;2023-03-26T14:03:24;11.23;;;3.17;;
48777;SDS011;34578;0.000;0.000;2023-03-26T14:08:37;11.15;;;3.78;;
48777;SDS011;34578;0.000;0.000;2023-03-26T14:13:45;10.75;;;3.33;;
48777;SDS011;34578;0.000;0.000;2023-03-26T14:18:52;10.65;;;3.50;;
48777;SDS011;34578;0.000;0.000;2023-03-26T14:35:00;8.13;;;3.13;;
48777;SDS011;34578;0.000;0.000;2023-03-26T14:40:15;7.63;;;3.13;;
48777;SDS011;34578;0.000;0.000;2023-03-26T15:01:24;7.40;;;2.47;;
48777;SDS011;34578;0.000;0.000;2023-03-26T15:28:10;5.60;;;1.90;;
48777;SDS011;34578;0.000;0.000;2023-03-26T15:44:13;9.13;;;2.70;;
48777;SDS011;34578;0.000;0.000;2023-03-26T15:54:57;6.63;;;2.03;;
48777;SDS011;34578;0.000;0.000;2023-03-26T16:06:16;6.70;;;2.47;;
48777;SDS011;34578;0.000;0.000;2023-03-26T16:10:59;4.70;;;1.95;;
48777;SDS011;34578;0.000;0.000;2023-03-26T16:42:38;4.75;;;2.08;;
48777;SDS011;34578;0.000;0.000;2023-03-26T16:48:01;6.35;;;1.88;;
48777;SDS011;34578;0.000;0.000;2023-03-26T16:58:26;5.75;;;1.75;;
48777;SDS011;34578;0.000;0.000;2023-03-26T17:03:37;3.78;;;1.50;;
48777;SDS011;34578;0.000;0.000;2023-03-26T17:08:54;5.13;;;1.95;;
48777;SDS011;34578;0.000;0.000;2023-03-26T17:35:03;5.13;;;1.88;;
48777;SDS011;34578;0.000;0.000;2023-03-26T17:40:49;6.47;;;2.45;;
48777;SDS011;34578;0.000;0.000;2023-03-26T17:45:42;3.77;;;2.00;;
48777;SDS011;34578;0.000;0.000;2023-03-26T17:50:47;8.70;;;2.30;;
48777;SDS011;34578;0.000;0.000;2023-03-26T17:55:50;6.68;;;2.70;;
48777;SDS011;34578;0.000;0.000;2023-03-26T18:00:53;7.03;;;3.15;;
48777;SDS011;34578;0.000;0.000;2023-03-26T18:06:19;5.90;;;2.72;;
48777;SDS011;34578;0.000;0.000;2023-03-26T18:11:46;8.18;;;4.18;;
48777;SDS011;34578;0.000;0.000;2023-03-26T18:16:56;10.18;;;3.70;;
48777;SDS011;34578;0.000;0.000;2023-03-26T18:22:02;10.07;;;3.65;;
48777;SDS011;34578;0.000;0.000;2023-03-26T18:27:05;9.40;;;3.65;;
48777;SDS011;34578;0.000;0.000;2023-03-26T18:37:17;9.48;;;4.60;;
48777;SDS011;34578;0.000;0.000;2023-03-26T18:42:21;14.55;;;5.65;;
48777;SDS011;34578;0.000;0.000;2023-03-26T18:47:22;10.15;;;3.83;;
48777;SDS011;34578;0.000;0.000;2023-03-26T18:52:24;11.60;;;5.05;;
48777;SDS011;34578;0.000;0.000;2023-03-26T18:57:27;13.02;;;5.20;;
48777;SDS011;34578;0.000;0.000;2023-03-26T19:02:28;10.55;;;4.85;;
48777;SDS011;34578;0.000;0.000;2023-03-26T19:07:28;11.40;;;4.85;;
48777;SDS011;34578;0.000;0.000;2023-03-26T19:12:30;11.65;;;5.00;;
48777;SDS011;34578;0.000;0.000;2023-03-26T19:17:37;9.77;;;3.85;;
48777;SDS011;34578;0.000;0.000;2023-03-26T19:22:41;12.17;;;4.43;;
48777;SDS011;34578;0.000;0.000;2023-03-26T19:27:43;12.48;;;4.50;;
48777;SDS011;34578;0.000;0.000;2023-03-26T19:32:50;9.82;;;4.70;;
48777;SDS011;34578;0.000;0.000;2023-03-26T19:37:52;7.75;;;4.18;;
48777;SDS011;34578;0.000;0.000;2023-03-26T19:42:53;8.20;;;4.10;;
48777;SDS011;34578;0.000;0.000;2023-03-26T19:47:53;8.87;;;4.27;;
48777;SDS011;34578;0.000;0.000;2023-03-26T19:53:14;12.13;;;4.32;;
48777;SDS011;34578;0.000;0.000;2023-03-26T19:58:18;7.22;;;3.72;;
48777;SDS011;34578;0.000;0.000;2023-03-26T20:03:23;8.52;;;3.97;;
48777;SDS011;34578;0.000;0.000;2023-03-26T20:08:26;8.10;;;3.65;;
48777;SDS011;34578;0.000;0.000;2023-03-26T20:13:28;5.00;;;3.35;;
48777;SDS011;34578;0.000;0.000;2023-03-26T20:18:30;6.97;;;4.43;;
48777;SDS011;34578;0.000;0.000;2023-03-26T20:23:30;6.03;;;3.37;;
48777;SDS011;34578;0.000;0.000;2023-03-26T20:28:30;8.57;;;4.27;;
48777;SDS011;34578;0.000;0.000;2023-03-26T20:33:31;11.37;;;3.70;;
48777;SDS011;34578;0.000;0.000;2023-03-26T20:38:31;7.57;;;3.40;;
48777;SDS011;34578;0.000;0.000;2023-03-26T20:43:31;5.30;;;3.00;;
48777;SDS011;34578;0.000;0.000;2023-03-26T20:48:32;5.63;;;2.90;;
48777;SDS011;34578;0.000;0.000;2023-03-26T20:53:33;6.05;;;3.47;;
48777;SDS011;34578;0.000;0.000;2023-03-26T20:58:33;5.18;;;3.38;;
48777;SDS011;34578;0.000;0.000;2023-03-26T21:03:34;5.27;;;3.23;;
48777;SDS011;34578;0.000;0.000;2023-03-26T21:08:35;7.18;;;3.78;;
48777;SDS011;34578;0.000;0.000;2023-03-26T21:13:38;5.55;;;3.13;;
48777;SDS011;34578;0.000;0.000;2023-03-26T21:18:42;5.32;;;2.67;;
48777;SDS011;34578;0.000;0.000;2023-03-26T21:23:45;6.50;;;2.88;;
48777;SDS011;34578;0.000;0.000;2023-03-26T21:28:58;7.20;;;3.53;;
48777;SDS011;34578;0.000;0.000;2023-03-26T21:33:59;8.05;;;3.38;;
48777;SDS011;34578;0.000;0.000;2023-03-26T21:39:01;5.57;;;2.40;;
48777;SDS011;34578;0.000;0.000;2023-03-26T21:44:02;5.93;;;2.78;;
48777;SDS011;34578;0.000;0.000;2023-03-26T21:49:03;6.20;;;2.38;;
48777;SDS011;34578;0.000;0.000;2023-03-26T21:54:11;6.72;;;3.00;;
48777;SDS011;34578;0.000;0.000;2023-03-26T21:59:26;7.63;;;2.97;;
48777;SDS011;34578;0.000;0.000;2023-03-26T22:04:52;7.35;;;2.85;;
48777;SDS011;34578;0.000;0.000;2023-03-26T22:09:56;7.33;;;3.30;;
48777;SDS011;34578;0.000;0.000;2023-03-26T22:14:57;7.32;;;2.78;;
48777;SDS011;34578;0.000;0.000;2023-03-26T22:19:57;4.03;;;2.63;;
48777;SDS011;34578;0.000;0.000;2023-03-26T22:25:00;5.45;;;2.67;;
48777;SDS011;34578;0.000;0.000;2023-03-26T22:30:00;6.07;;;2.70;;
48777;SDS011;34578;0.000;0.000;2023-03-26T22:35:01;3.43;;;2.30;;
48777;SDS011;34578;0.000;0.000;2023-03-26T22:40:03;4.07;;;1.90;;
48777;SDS011;34578;0.000;0.000;2023-03-26T22:45:07;6.63;;;2.42;;
48777;SDS011;34578;0.000;0.000;2023-03-26T22:50:11;6.20;;;3.00;;
48777;SDS011;34578;0.000;0.000;2023-03-26T22:55:11;4.10;;;2.50;;
48777;SDS011;34578;0.000;0.000;2023-03-26T23:00:12;3.67;;;2.35;;
48777;SDS011;34578;0.000;0.000;2023-03-26T23:05:18;4.97;;;2.87;;
48777;SDS011;34578;0.000;0.000;2023-03-26T23:10:18;7.67;;;3.03;;
48777;SDS011;34578;0.000;0.000;2023-03-26T23:15:20;10.80;;;2.58;;
48777;SDS011;34578;0.000;0.000;2023-03-26T23:20:21;3.40;;;2.00;;
48777;SDS011;34578;0.000;0.000;2023-03-26T23:25:21;3.93;;;2.57;;
48777;SDS011;34578;0.000;0.000;2023-03-26T23:30:21;4.23;;;2.20;;
48777;SDS011;34578;0.000;0.000;2023-03-26T23:35:22;4.75;;;2.22;;
48777;SDS011;34578;0.000;0.000;2023-03-26T23:40:23;3.27;;;2.13;;
48777;SDS011;34578;0.000;0.000;2023-03-26T23:45:23;4.97;;;2.77;;
48777;SDS011;34578;0.000;0.000;2023-03-26T23:50:23;3.90;;;2.03;;
48777;SDS011;34578;0.000;0.000;2023-03-26T23:55:24;3.03;;;1.73;;
